createdAt,value
2023-04-20T00:00:12.452Z,9.40
2023-04-20T00:02:43.832Z,9.20
2023-04-20T00:05:12.967Z,9.20
2023-04-20T00:07:41.742Z,9.20
2023-04-20T00:10:12.041Z,9.20
2023-04-20T00:12:40.292Z,9.20
2023-04-20T00:15:09.221Z,9.20
2023-04-20T00:17:38.725Z,9.40
2023-04-20T00:20:09.973Z,9.40
2023-04-20T00:22:38.221Z,9.50
2023-04-20T00:25:07.229Z,9.50
2023-04-20T00:27:36.801Z,9.60
2023-04-20T00:30:05.481Z,9.60
2023-04-20T00:32:33.766Z,9.50
2023-04-20T00:35:01.937Z,9.50
2023-04-20T00:37:30.125Z,9.50
2023-04-20T00:39:59.115Z,9.50
2023-04-20T00:42:27.327Z,9.60
2023-04-20T00:44:56.863Z,9.60
2023-04-20T00:47:25.151Z,9.50
2023-04-20T00:49:54.138Z,9.50
2023-04-20T00:52:23.066Z,9.50
2023-04-20T00:54:51.565Z,9.50
2023-04-20T00:57:24.170Z,9.40
2023-04-20T00:59:52.802Z,9.40
2023-04-20T01:02:25.086Z,9.50
2023-04-20T01:04:53.425Z,9.50
2023-04-20T01:07:21.569Z,9.50
2023-04-20T01:09:51.602Z,9.50
2023-04-20T01:12:19.778Z,9.60
2023-04-20T01:14:47.949Z,9.70
2023-04-20T01:17:16.129Z,9.70
2023-04-20T01:19:49.236Z,9.60
2023-04-20T01:22:20.272Z,9.60
2023-04-20T01:24:48.991Z,9.70
2023-04-20T01:27:17.481Z,9.70
2023-04-20T01:29:46.524Z,9.70
2023-04-20T01:32:14.897Z,9.60
2023-04-20T01:34:43.082Z,9.60
2023-04-20T01:37:11.199Z,9.60
2023-04-20T01:39:42.027Z,9.60
2023-04-20T01:42:10.556Z,9.60
2023-04-20T01:44:38.677Z,9.60
2023-04-20T01:47:07.188Z,9.70
2023-04-20T01:49:35.318Z,9.70
2023-04-20T01:54:31.869Z,9.70
2023-04-20T01:57:02.867Z,9.70
2023-04-20T01:59:31.227Z,9.70
2023-04-20T02:01:59.491Z,9.70
2023-04-20T02:04:28.011Z,9.60
2023-04-20T02:06:56.196Z,9.60
2023-04-20T02:09:24.413Z,9.60
2023-04-20T02:11:52.581Z,9.60
2023-04-20T02:14:22.133Z,9.60
2023-04-20T02:16:50.362Z,9.60
2023-04-20T02:19:18.997Z,9.60
2023-04-20T02:21:47.251Z,9.70
2023-04-20T02:24:15.617Z,9.70
2023-04-20T02:26:43.739Z,9.70
2023-04-20T02:29:11.896Z,9.70
2023-04-20T02:31:41.503Z,9.60
2023-04-20T02:34:10.901Z,9.60
2023-04-20T02:36:39.106Z,9.60
2023-04-20T02:39:07.382Z,9.60
2023-04-20T02:41:35.922Z,9.60
2023-04-20T02:44:05.140Z,9.60
2023-04-20T02:46:35.672Z,9.60
2023-04-20T02:49:05.506Z,9.60
2023-04-20T02:51:38.267Z,9.60
2023-04-20T02:54:06.959Z,9.60
2023-04-20T02:56:35.155Z,9.50
2023-04-20T02:59:07.085Z,9.60
2023-04-20T03:01:48.058Z,9.60
2023-04-20T03:04:22.230Z,9.60
2023-04-20T03:07:06.551Z,9.60
2023-04-20T03:09:37.351Z,9.60
2023-04-20T03:12:18.483Z,9.60
2023-04-20T03:17:42.572Z,9.50
2023-04-20T03:20:14.821Z,9.50
2023-04-20T03:22:43.126Z,9.50
2023-04-20T03:25:11.984Z,9.40
2023-04-20T03:27:56.077Z,9.50
2023-04-20T03:30:24.307Z,9.40
2023-04-20T03:33:06.336Z,9.40
2023-04-20T03:35:39.385Z,9.20
2023-04-20T03:38:07.878Z,9.30
2023-04-20T03:40:36.334Z,9.20
2023-04-20T03:43:05.966Z,9.10
2023-04-20T03:45:34.214Z,9.10
2023-04-20T03:50:31.237Z,9.00
2023-04-20T03:53:00.845Z,9.00
2023-04-20T03:55:29.054Z,9.00
2023-04-20T03:58:03.530Z,9.00
2023-04-20T04:00:40.516Z,9.00
2023-04-20T04:03:13.544Z,9.00
2023-04-20T04:05:42.410Z,9.00
2023-04-20T04:08:11.933Z,9.00
2023-04-20T04:10:40.457Z,9.00
2023-04-20T04:13:08.566Z,9.10
2023-04-20T04:15:36.839Z,9.10
2023-04-20T04:18:11.098Z,9.20
2023-04-20T04:20:41.405Z,9.30
2023-04-20T04:23:14.256Z,9.30
2023-04-20T04:25:48.949Z,9.40
2023-04-20T04:28:21.182Z,9.60
2023-04-20T04:31:01.497Z,9.60
2023-04-20T04:36:00.488Z,9.70
2023-04-20T04:38:31.667Z,9.60
2023-04-20T04:41:00.676Z,10.50
2023-04-20T04:43:31.022Z,9.70
2023-04-20T04:46:14.643Z,9.70
2023-04-20T04:51:11.790Z,9.90
2023-04-20T04:53:45.139Z,9.90
2023-04-20T04:56:14.172Z,10.00
2023-04-20T04:58:42.200Z,10.10
2023-04-20T05:01:10.436Z,10.20
2023-04-20T05:03:38.784Z,10.20
2023-04-20T05:06:07.567Z,10.30
2023-04-20T05:08:36.196Z,10.40
2023-04-20T05:11:05.789Z,10.50
2023-04-20T05:16:02.549Z,10.60
2023-04-20T05:18:30.665Z,10.70
2023-04-20T05:20:59.013Z,10.80
2023-04-20T05:23:27.171Z,10.80
2023-04-20T05:25:55.338Z,10.90
2023-04-20T05:28:24.843Z,10.90
2023-04-20T05:30:55.134Z,11.40
2023-04-20T05:33:23.662Z,11.40
2023-04-20T05:35:52.160Z,11.80
2023-04-20T05:38:20.404Z,11.70
2023-04-20T05:40:49.786Z,11.40
2023-04-20T05:43:19.225Z,11.30
2023-04-20T05:45:50.053Z,11.00
2023-04-20T05:48:18.315Z,10.80
2023-04-20T05:50:46.410Z,10.80
2023-04-20T05:53:14.641Z,10.90
2023-04-20T05:55:42.786Z,11.10
2023-04-20T05:58:11.916Z,11.50
2023-04-20T06:00:40.750Z,11.70
2023-04-20T06:03:10.526Z,11.70
2023-04-20T06:05:39.134Z,12.10
2023-04-20T06:08:07.473Z,12.10
2023-04-20T06:10:35.636Z,12.20
2023-04-20T06:15:32.676Z,12.10
2023-04-20T06:18:01.791Z,12.10
2023-04-20T06:20:31.372Z,12.30
2023-04-20T06:22:59.684Z,12.20
2023-04-20T06:25:27.857Z,12.50
2023-04-20T06:30:24.798Z,12.60
2023-04-20T06:32:53.153Z,12.70
2023-04-20T06:35:22.615Z,12.80
2023-04-20T06:37:52.214Z,12.80
2023-04-20T06:40:20.620Z,12.70
2023-04-20T06:45:18.329Z,12.70
2023-04-20T06:47:46.704Z,12.80
2023-04-20T06:50:15.059Z,13.10
2023-04-20T06:52:43.398Z,13.00
2023-04-20T06:55:13.387Z,13.20
2023-04-20T06:57:43.848Z,13.20
2023-04-20T07:00:13.136Z,13.20
2023-04-20T07:02:46.113Z,13.80
2023-04-20T07:07:43.288Z,13.50
2023-04-20T07:10:14.997Z,14.30
2023-04-20T07:12:44.112Z,14.10
2023-04-20T07:17:41.029Z,14.50
2023-04-20T07:20:10.439Z,14.80
2023-04-20T07:22:39.896Z,14.90
2023-04-20T07:25:09.647Z,15.10
2023-04-20T07:27:41.483Z,15.20
2023-04-20T07:30:10.961Z,15.40
2023-04-20T07:32:40.911Z,15.50
2023-04-20T07:35:10.249Z,15.50
2023-04-20T07:37:38.411Z,15.80
2023-04-20T07:40:07.952Z,15.90
2023-04-20T07:42:37.449Z,16.00
2023-04-20T07:45:08.932Z,16.00
2023-04-20T07:47:37.617Z,16.10
2023-04-20T07:50:06.997Z,16.00
2023-04-20T07:52:35.769Z,16.10
2023-04-20T07:55:04.240Z,16.10
2023-04-20T07:57:32.473Z,15.80
2023-04-20T08:00:00.529Z,16.00
2023-04-20T08:02:32.867Z,16.00
2023-04-20T08:05:03.644Z,16.10
2023-04-20T08:07:32.389Z,16.10
2023-04-20T08:10:01.394Z,16.30
2023-04-20T08:12:29.684Z,16.20
2023-04-20T08:15:00.612Z,16.30
2023-04-20T08:17:30.166Z,16.60
2023-04-20T08:19:58.385Z,16.50
2023-04-20T08:22:29.923Z,16.30
2023-04-20T08:24:58.560Z,16.70
2023-04-20T08:27:29.654Z,16.80
2023-04-20T08:29:58.185Z,16.70
2023-04-20T08:32:26.932Z,16.60
2023-04-20T08:34:57.213Z,16.50
2023-04-20T08:37:25.951Z,16.50
2023-04-20T08:39:54.455Z,16.70
2023-04-20T08:42:22.686Z,16.90
2023-04-20T08:44:50.973Z,16.90
2023-04-20T08:47:19.138Z,17.00
2023-04-20T08:49:49.015Z,17.00
2023-04-20T08:52:18.457Z,17.40
2023-04-20T08:54:56.002Z,17.60
2023-04-20T08:57:25.846Z,17.70
2023-04-20T08:59:54.591Z,17.90
2023-04-20T09:02:24.791Z,17.80
2023-04-20T09:05:03.035Z,18.00
2023-04-20T09:07:32.912Z,18.20
2023-04-20T09:10:02.041Z,18.00
2023-04-20T09:12:30.335Z,17.80
2023-04-20T09:14:58.790Z,17.20
2023-04-20T09:17:34.819Z,17.30
2023-04-20T09:20:05.235Z,17.20
2023-04-20T09:22:36.630Z,17.10
2023-04-20T09:25:14.701Z,17.40
2023-04-20T09:27:43.445Z,17.50
2023-04-20T09:30:12.670Z,17.60
2023-04-20T09:32:41.084Z,17.80
2023-04-20T09:35:10.179Z,17.90
2023-04-20T09:37:48.944Z,18.00
2023-04-20T09:40:19.092Z,18.20
2023-04-20T09:42:49.536Z,18.40
2023-04-20T09:45:19.664Z,18.40
2023-04-20T09:47:49.992Z,18.60
2023-04-20T09:50:26.631Z,18.60
2023-04-20T09:52:59.625Z,18.80
2023-04-20T09:55:28.616Z,19.00
2023-04-20T09:57:58.956Z,18.70
2023-04-20T10:00:27.540Z,18.80
2023-04-20T10:02:56.168Z,19.00
2023-04-20T10:05:35.755Z,19.10
2023-04-20T10:08:05.904Z,19.20
2023-04-20T10:10:45.102Z,19.70
2023-04-20T10:13:13.687Z,19.50
2023-04-20T10:15:43.051Z,19.60
2023-04-20T10:18:23.827Z,19.90
2023-04-20T10:20:53.331Z,19.50
2023-04-20T10:23:23.051Z,19.30
2023-04-20T10:25:58.301Z,19.20
2023-04-20T10:28:26.949Z,18.90
2023-04-20T10:30:55.399Z,18.70
2023-04-20T10:33:24.280Z,18.80
2023-04-20T10:35:58.989Z,18.80
2023-04-20T10:38:33.670Z,18.90
2023-04-20T10:41:08.304Z,19.00
2023-04-20T10:43:39.251Z,19.50
2023-04-20T10:46:15.760Z,19.90
2023-04-20T10:48:57.492Z,19.60
2023-04-20T10:51:26.632Z,19.30
2023-04-20T10:54:06.277Z,19.00
2023-04-20T10:56:43.109Z,19.20
2023-04-20T10:59:12.631Z,19.50
2023-04-20T11:01:41.328Z,19.50
2023-04-20T11:04:10.536Z,19.40
2023-04-20T11:06:40.115Z,19.20
2023-04-20T11:09:20.523Z,19.00
2023-04-20T11:12:00.282Z,18.80
2023-04-20T11:16:57.857Z,18.70
2023-04-20T11:19:28.108Z,18.70
2023-04-20T11:21:56.522Z,18.60
2023-04-20T11:24:27.408Z,18.60
2023-04-20T11:26:56.858Z,19.00
2023-04-20T11:29:33.305Z,19.40
2023-04-20T11:32:05.103Z,19.70
2023-04-20T11:34:34.160Z,20.20
2023-04-20T11:37:06.035Z,20.10
2023-04-20T11:39:37.115Z,19.90
2023-04-20T11:42:06.424Z,19.60
2023-04-20T11:44:36.805Z,19.70
2023-04-20T11:47:06.298Z,20.20
2023-04-20T11:49:34.725Z,20.40
2023-04-20T11:52:03.586Z,21.00
2023-04-20T11:54:34.083Z,21.80
2023-04-20T11:57:05.027Z,21.10
2023-04-20T11:59:33.431Z,20.90
2023-04-20T12:02:04.222Z,21.40
2023-04-20T12:04:34.487Z,21.20
2023-04-20T12:07:03.493Z,20.90
2023-04-20T12:09:36.136Z,21.20
2023-04-20T12:12:06.760Z,21.70
2023-04-20T12:14:35.285Z,22.10
2023-04-20T12:17:04.502Z,22.10
2023-04-20T12:19:33.135Z,21.90
2023-04-20T12:22:01.564Z,22.00
2023-04-20T12:24:29.996Z,21.80
2023-04-20T12:26:59.311Z,21.80
2023-04-20T12:29:31.259Z,21.70
2023-04-20T12:32:02.203Z,21.20
2023-04-20T12:34:30.902Z,20.40
2023-04-20T12:36:59.444Z,20.10
2023-04-20T12:39:27.817Z,19.70
2023-04-20T12:41:57.444Z,19.40
2023-04-20T12:44:26.687Z,19.60
2023-04-20T12:47:38.620Z,20.10
2023-04-20T12:50:10.739Z,18.40
2023-04-20T12:55:08.755Z,21.50
2023-04-20T13:03:09.813Z,21.60
2023-04-20T13:05:38.783Z,21.10
2023-04-20T13:10:38.581Z,19.90
2023-04-20T13:13:07.052Z,19.90
2023-04-20T13:15:39.142Z,20.30
2023-04-20T13:18:19.865Z,20.20
2023-04-20T13:28:17.659Z,21.20
2023-04-20T13:30:46.514Z,20.80
2023-04-20T13:33:16.557Z,20.60
2023-04-20T13:35:44.938Z,20.30
2023-04-20T13:40:41.819Z,19.80
2023-04-20T13:43:10.193Z,19.50
2023-04-20T13:45:38.386Z,19.10
2023-04-20T13:48:07.228Z,19.10
2023-04-20T13:50:37.286Z,19.30
2023-04-20T13:53:05.829Z,19.80
2023-04-20T13:55:34.049Z,20.20
2023-04-20T13:58:02.307Z,20.40
2023-04-20T14:00:31.125Z,20.60
2023-04-20T14:03:00.477Z,21.00
2023-04-20T14:05:29.202Z,20.80
2023-04-20T14:08:01.747Z,20.90
2023-04-20T14:10:30.500Z,20.20
2023-04-20T14:12:58.557Z,20.30
2023-04-20T14:17:56.234Z,19.70
2023-04-20T14:20:24.749Z,19.60
2023-04-20T14:25:23.249Z,19.20
2023-04-20T14:27:51.558Z,19.00
2023-04-20T14:30:19.832Z,19.00
2023-04-20T14:32:56.105Z,19.30
2023-04-20T14:35:25.330Z,19.40
2023-04-20T14:37:53.630Z,19.70
2023-04-20T14:40:24.620Z,20.30
2023-04-20T14:42:52.932Z,20.60
2023-04-20T14:45:23.847Z,20.90
2023-04-20T14:47:55.021Z,21.10
2023-04-20T14:50:24.228Z,21.10
2023-04-20T14:52:53.745Z,20.70
2023-04-20T14:55:26.204Z,20.10
2023-04-20T14:57:58.659Z,20.00
2023-04-20T15:00:28.390Z,20.60
2023-04-20T15:02:58.155Z,19.90
2023-04-20T15:10:26.148Z,19.80
2023-04-20T15:12:54.366Z,19.60
2023-04-20T15:20:22.835Z,19.40
2023-04-20T15:22:51.036Z,19.50
2023-04-20T15:25:19.337Z,19.40
2023-04-20T15:27:49.699Z,19.60
2023-04-20T15:32:55.020Z,19.50
2023-04-20T15:40:30.015Z,19.00
2023-04-20T15:42:59.752Z,18.70
2023-04-20T15:45:30.025Z,18.70
2023-04-20T15:47:58.812Z,18.80
2023-04-20T15:50:27.317Z,19.60
2023-04-20T15:52:57.142Z,18.80
2023-04-20T15:55:25.908Z,20.20
2023-04-20T15:57:58.366Z,18.80
2023-04-20T16:00:31.475Z,19.10
2023-04-20T16:05:31.262Z,19.10
2023-04-20T16:08:01.017Z,19.10
2023-04-20T16:10:29.647Z,19.00
2023-04-20T16:12:58.073Z,19.00
2023-04-20T16:15:27.749Z,18.80
2023-04-20T16:20:24.604Z,18.40
2023-04-20T16:25:24.229Z,18.00
2023-04-20T16:27:53.024Z,17.80
2023-04-20T16:32:51.647Z,17.90
2023-04-20T16:35:25.995Z,17.60
2023-04-20T16:40:25.645Z,17.50
2023-04-20T16:47:54.218Z,17.40
2023-04-20T16:57:49.379Z,16.80
2023-04-20T17:00:27.466Z,17.10
2023-04-20T17:03:01.545Z,16.70
2023-04-20T17:05:30.399Z,16.80
2023-04-20T17:07:59.056Z,17.60
2023-04-20T17:10:27.419Z,17.20
2023-04-20T17:12:55.722Z,16.80
2023-04-20T17:17:52.933Z,16.70
2023-04-20T17:20:23.926Z,16.50
2023-04-20T17:27:56.943Z,16.30
2023-04-20T17:32:54.515Z,16.10
2023-04-20T17:35:25.143Z,15.80
2023-04-20T17:42:55.507Z,15.60
2023-04-20T17:47:54.781Z,15.60
2023-04-20T17:50:30.489Z,15.50
2023-04-20T18:03:42.362Z,15.10
2023-04-20T18:06:22.639Z,14.90
2023-04-20T18:14:25.976Z,15.40
2023-04-20T18:41:42.921Z,14.70
2023-04-20T18:46:50.158Z,14.50
2023-04-20T19:05:39.730Z,14.30
2023-04-20T19:08:11.980Z,14.20
2023-04-20T19:15:58.434Z,14.00
2023-04-20T19:21:32.772Z,13.90
2023-04-20T20:03:10.087Z,13.20
2023-04-20T20:05:51.153Z,13.10
2023-04-20T20:12:10.856Z,13.20
2023-04-20T20:22:35.639Z,13.10
2023-04-20T20:30:51.279Z,13.00
2023-04-20T20:39:01.460Z,12.70
2023-04-20T20:41:30.607Z,12.70
2023-04-20T20:43:59.795Z,11.00
2023-04-20T20:46:27.952Z,12.70
2023-04-20T20:48:57.028Z,12.70
2023-04-20T20:51:26.575Z,12.70
2023-04-20T20:53:54.822Z,12.50
2023-04-20T20:56:24.389Z,12.30
2023-04-20T20:58:54.248Z,12.60
2023-04-20T21:01:22.644Z,12.60
2023-04-20T21:03:51.179Z,12.60
2023-04-20T21:06:19.441Z,12.50
2023-04-20T21:08:48.692Z,12.30
2023-04-20T21:11:16.906Z,12.50
2023-04-20T21:13:47.458Z,12.40
2023-04-20T21:16:15.783Z,12.40
2023-04-20T21:18:44.001Z,12.40
2023-04-20T21:21:13.657Z,12.30
2023-04-20T21:26:10.305Z,12.30
2023-04-20T21:28:38.501Z,12.30
2023-04-20T21:31:08.134Z,12.20
2023-04-20T21:33:36.906Z,12.20
2023-04-20T21:36:07.161Z,12.20
2023-04-20T21:38:35.820Z,12.00
2023-04-20T21:41:04.203Z,12.10
2023-04-20T21:43:32.454Z,12.10
2023-04-20T21:46:00.637Z,12.20
2023-04-20T21:48:30.275Z,12.10
2023-04-20T21:50:58.411Z,12.00
2023-04-20T21:53:26.616Z,11.90
2023-04-20T21:55:54.720Z,11.90
2023-04-20T21:58:22.888Z,11.80
2023-04-20T22:00:51.080Z,11.70
2023-04-20T22:03:19.429Z,11.70
2023-04-20T22:05:49.204Z,11.70
2023-04-20T22:08:21.967Z,11.60
2023-04-20T22:10:50.564Z,11.60
2023-04-20T22:13:19.759Z,11.60
2023-04-20T22:18:19.005Z,11.50
2023-04-20T22:20:49.629Z,11.50
2023-04-20T22:23:17.775Z,11.40
2023-04-20T22:25:45.970Z,11.40
2023-04-20T22:28:14.141Z,11.30
2023-04-20T22:30:42.617Z,11.30
2023-04-20T22:33:10.844Z,11.30
2023-04-20T22:35:39.061Z,11.10
2023-04-20T22:38:08.516Z,10.80
2023-04-20T22:40:36.751Z,10.90
2023-04-20T22:43:05.046Z,11.00
2023-04-20T22:48:01.655Z,10.90
2023-04-20T22:50:29.950Z,10.80
2023-04-20T22:52:58.027Z,10.90
2023-04-20T22:55:27.808Z,10.80
2023-04-20T22:57:55.953Z,10.70
2023-04-20T23:00:24.180Z,10.70
2023-04-20T23:02:52.385Z,10.90
2023-04-20T23:05:20.885Z,10.40
2023-04-20T23:10:19.060Z,10.50
2023-04-20T23:12:48.536Z,10.40
2023-04-20T23:15:16.717Z,10.30
2023-04-20T23:17:44.920Z,10.40
2023-04-20T23:20:14.616Z,10.40
2023-04-20T23:22:42.843Z,10.30
2023-04-20T23:25:11.511Z,10.20
2023-04-20T23:27:39.757Z,10.20
2023-04-20T23:30:10.657Z,10.10
2023-04-20T23:32:38.785Z,10.20
2023-04-20T23:35:08.558Z,10.20
2023-04-20T23:37:36.769Z,10.30
2023-04-20T23:40:07.364Z,10.10
2023-04-20T23:42:37.501Z,10.00
2023-04-20T23:45:06.410Z,10.00
2023-04-20T23:47:36.008Z,10.00
2023-04-20T23:50:04.164Z,10.10
2023-04-20T23:52:32.383Z,10.00
2023-04-20T23:55:00.647Z,10.00
2023-04-20T23:57:28.901Z,10.00
2023-04-20T23:59:57.056Z,9.90
